createdAt,value
2022-09-18T00:00:43.412Z,2.73
2022-09-18T00:02:47.599Z,2.40
2022-09-18T00:04:49.246Z,2.10
2022-09-18T00:06:50.866Z,2.40
2022-09-18T00:08:53.577Z,2.37
2022-09-18T00:10:55.288Z,2.00
2022-09-18T00:12:56.843Z,2.10
2022-09-18T00:14:59.766Z,1.73
2022-09-18T00:17:08.433Z,2.10
2022-09-18T00:19:11.585Z,2.00
2022-09-18T00:21:15.129Z,2.50
2022-09-18T00:23:16.630Z,1.73
2022-09-18T00:25:18.478Z,1.80
2022-09-18T00:27:20.119Z,2.00
2022-09-18T00:29:21.642Z,1.90
2022-09-18T00:31:26.658Z,1.77
2022-09-18T00:33:28.293Z,1.70
2022-09-18T00:35:29.877Z,2.00
2022-09-18T00:37:31.591Z,2.00
2022-09-18T00:39:33.151Z,2.17
2022-09-18T00:41:36.565Z,1.50
2022-09-18T00:43:38.237Z,2.57
2022-09-18T00:45:39.800Z,1.67
2022-09-18T00:47:45.877Z,1.60
2022-09-18T00:49:51.150Z,1.90
2022-09-18T00:51:55.349Z,1.83
2022-09-18T00:54:06.524Z,1.93
2022-09-18T00:56:12.540Z,1.73
2022-09-18T00:58:14.869Z,1.93
2022-09-18T01:00:16.613Z,1.90
2022-09-18T01:02:18.481Z,1.90
2022-09-18T01:04:21.874Z,1.90
2022-09-18T01:06:32.922Z,1.63
2022-09-18T01:08:47.397Z,2.03
2022-09-18T01:11:03.408Z,2.00
2022-09-18T01:13:15.086Z,1.60
2022-09-18T01:15:23.736Z,1.60
2022-09-18T01:17:31.549Z,1.60
2022-09-18T01:19:52.682Z,1.47
2022-09-18T01:22:05.965Z,1.77
2022-09-18T01:24:44.096Z,1.20
2022-09-18T01:26:53.350Z,1.90
2022-09-18T01:28:58.987Z,1.77
2022-09-18T01:31:06.182Z,1.77
2022-09-18T01:33:17.144Z,2.20
2022-09-18T01:35:40.646Z,1.60
2022-09-18T01:37:48.674Z,1.70
2022-09-18T01:39:55.861Z,1.40
2022-09-18T01:41:57.989Z,1.83
2022-09-18T01:44:06.871Z,1.77
2022-09-18T01:46:11.617Z,1.53
2022-09-18T01:48:21.100Z,1.23
2022-09-18T01:50:27.087Z,1.57
2022-09-18T01:52:33.028Z,1.30
2022-09-18T01:54:38.787Z,1.30
2022-09-18T01:56:46.404Z,1.20
2022-09-18T01:58:50.185Z,1.60
2022-09-18T02:00:56.690Z,1.90
2022-09-18T02:03:02.717Z,1.50
2022-09-18T02:05:09.305Z,1.80
2022-09-18T02:07:16.248Z,2.00
2022-09-18T02:09:17.743Z,1.47
2022-09-18T02:11:21.353Z,1.80
2022-09-18T02:13:27.670Z,1.33
2022-09-18T02:15:31.765Z,1.60
2022-09-18T02:17:42.225Z,1.40
2022-09-18T02:19:49.052Z,1.43
2022-09-18T02:21:52.873Z,1.80
2022-09-18T02:23:57.839Z,1.90
2022-09-18T02:26:02.426Z,1.97
2022-09-18T02:28:07.107Z,1.90
2022-09-18T02:30:10.354Z,1.30
2022-09-18T02:32:12.671Z,1.70
2022-09-18T02:34:17.392Z,1.50
2022-09-18T02:36:33.435Z,1.30
2022-09-18T02:38:43.496Z,1.40
2022-09-18T02:40:55.208Z,1.43
2022-09-18T02:43:15.137Z,1.47
2022-09-18T02:45:26.386Z,1.53
2022-09-18T02:47:38.940Z,1.53
2022-09-18T02:49:49.795Z,1.80
2022-09-18T02:51:57.593Z,1.50
2022-09-18T02:54:07.366Z,1.53
2022-09-18T02:56:14.765Z,1.50
2022-09-18T02:58:21.577Z,1.93
2022-09-18T03:00:24.204Z,1.30
2022-09-18T03:02:26.375Z,1.67
2022-09-18T03:04:28.350Z,1.90
2022-09-18T03:06:31.291Z,1.50
2022-09-18T03:08:32.999Z,1.40
2022-09-18T03:10:34.509Z,1.60
2022-09-18T03:12:36.030Z,1.80
2022-09-18T03:14:37.621Z,1.70
2022-09-18T03:16:39.096Z,1.70
2022-09-18T03:18:40.600Z,1.40
2022-09-18T03:20:42.825Z,1.60
2022-09-18T03:22:45.744Z,1.80
2022-09-18T03:24:47.240Z,1.73
2022-09-18T03:26:48.803Z,1.70
2022-09-18T03:28:50.328Z,1.63
2022-09-18T03:30:51.978Z,1.63
2022-09-18T03:32:53.548Z,1.20
2022-09-18T03:34:55.701Z,1.67
2022-09-18T03:36:57.208Z,1.20
2022-09-18T03:39:00.193Z,1.40
2022-09-18T03:41:01.682Z,1.73
2022-09-18T03:43:03.318Z,1.50
2022-09-18T03:45:06.361Z,1.50
2022-09-18T03:47:07.978Z,1.70
2022-09-18T03:49:09.465Z,1.43
2022-09-18T03:51:10.944Z,1.50
2022-09-18T03:53:12.412Z,1.63
2022-09-18T03:55:15.461Z,1.53
2022-09-18T03:57:17.079Z,1.87
2022-09-18T03:59:18.983Z,1.50
2022-09-18T04:01:20.639Z,1.73
2022-09-18T04:03:22.239Z,1.57
2022-09-18T04:05:23.843Z,1.93
2022-09-18T04:07:25.534Z,1.73
2022-09-18T04:09:27.031Z,1.87
2022-09-18T04:11:30.110Z,1.53
2022-09-18T04:13:31.791Z,2.10
2022-09-18T04:15:33.367Z,1.83
2022-09-18T04:17:34.907Z,1.50
2022-09-18T04:19:36.482Z,1.40
2022-09-18T04:21:38.103Z,1.80
2022-09-18T04:23:39.591Z,1.57
2022-09-18T04:25:41.600Z,1.20
2022-09-18T04:27:44.686Z,1.27
2022-09-18T04:29:46.184Z,1.63
2022-09-18T04:31:47.845Z,1.77
2022-09-18T04:33:49.478Z,1.87
2022-09-18T04:35:50.952Z,1.37
2022-09-18T04:37:52.469Z,1.20
2022-09-18T04:39:54.073Z,1.63
2022-09-18T04:41:55.666Z,1.27
2022-09-18T04:43:58.476Z,1.60
2022-09-18T04:46:00.020Z,1.10
2022-09-18T04:48:02.140Z,1.80
2022-09-18T04:50:04.464Z,1.90
2022-09-18T04:52:05.962Z,1.47
2022-09-18T04:54:07.458Z,1.27
2022-09-18T04:56:09.039Z,1.50
2022-09-18T04:58:10.988Z,1.50
2022-09-18T05:00:14.352Z,1.37
2022-09-18T05:02:15.925Z,1.53
2022-09-18T05:04:17.548Z,1.30
2022-09-18T05:06:19.101Z,1.13
2022-09-18T05:08:20.953Z,1.40
2022-09-18T05:10:22.599Z,1.90
2022-09-18T05:12:24.107Z,2.10
2022-09-18T05:14:25.652Z,1.50
2022-09-18T05:16:28.664Z,2.30
2022-09-18T05:18:30.260Z,2.40
2022-09-18T05:20:33.812Z,2.07
2022-09-18T05:22:35.432Z,1.93
2022-09-18T05:24:36.934Z,1.90
2022-09-18T05:26:38.443Z,2.33
2022-09-18T05:28:40.348Z,2.73
2022-09-18T05:30:41.900Z,1.90
2022-09-18T05:32:44.749Z,2.17
2022-09-18T05:34:46.609Z,1.70
2022-09-18T05:36:48.116Z,1.60
2022-09-18T05:38:49.621Z,1.77
2022-09-18T05:40:51.192Z,1.53
2022-09-18T05:42:53.102Z,1.50
2022-09-18T05:44:56.698Z,1.50
2022-09-18T05:47:01.637Z,2.10
2022-09-18T05:49:04.553Z,1.53
2022-09-18T05:51:06.071Z,1.50
2022-09-18T05:53:11.084Z,1.50
2022-09-18T05:55:12.956Z,2.05
2022-09-18T05:57:14.563Z,1.63
2022-09-18T05:59:16.154Z,1.60
2022-09-18T06:01:17.664Z,1.30
2022-09-18T06:03:19.287Z,1.60
2022-09-18T06:05:22.543Z,1.90
2022-09-18T06:07:24.177Z,2.17
2022-09-18T06:09:25.760Z,1.60
2022-09-18T06:11:27.644Z,2.20
2022-09-18T06:13:29.221Z,2.60
2022-09-18T06:15:31.150Z,2.75
2022-09-18T06:17:32.910Z,2.57
2022-09-18T06:19:34.483Z,2.53
2022-09-18T06:21:37.374Z,2.05
2022-09-18T06:23:38.949Z,1.80
2022-09-18T06:25:40.624Z,1.85
2022-09-18T06:27:42.115Z,1.70
2022-09-18T06:29:43.702Z,1.80
2022-09-18T06:31:45.246Z,2.00
2022-09-18T06:33:47.844Z,1.83
2022-09-18T06:35:49.392Z,1.90
2022-09-18T06:37:52.239Z,1.93
2022-09-18T06:39:53.754Z,2.03
2022-09-18T06:41:55.478Z,2.07
2022-09-18T06:43:57.236Z,1.93
2022-09-18T06:45:58.821Z,1.93
2022-09-18T06:48:01.413Z,1.67
2022-09-18T06:50:03.380Z,1.70
2022-09-18T06:52:05.169Z,2.13
2022-09-18T06:54:08.092Z,1.53
2022-09-18T06:56:09.634Z,1.90
2022-09-18T06:58:11.651Z,1.77
2022-09-18T07:00:13.578Z,1.90
2022-09-18T07:02:19.432Z,2.27
2022-09-18T07:04:21.321Z,2.25
2022-09-18T07:06:25.814Z,2.07
2022-09-18T07:08:27.294Z,1.70
2022-09-18T07:10:30.206Z,2.00
2022-09-18T07:12:31.768Z,1.87
2022-09-18T07:14:33.298Z,1.70
2022-09-18T07:16:35.303Z,2.37
2022-09-18T07:18:36.939Z,1.90
2022-09-18T07:20:38.496Z,1.87
2022-09-18T07:22:44.967Z,1.87
2022-09-18T07:24:48.744Z,2.00
2022-09-18T07:26:51.582Z,2.20
2022-09-18T07:28:53.112Z,2.50
2022-09-18T07:30:55.017Z,1.60
2022-09-18T07:32:56.572Z,2.03
2022-09-18T07:34:58.128Z,1.70
2022-09-18T07:37:02.758Z,1.53
2022-09-18T07:39:04.578Z,1.70
2022-09-18T07:41:07.916Z,1.70
2022-09-18T07:43:11.278Z,1.40
2022-09-18T07:45:12.823Z,1.83
2022-09-18T07:47:14.325Z,2.10
2022-09-18T07:49:16.022Z,1.77
2022-09-18T07:51:18.827Z,1.57
2022-09-18T07:53:21.825Z,1.80
2022-09-18T07:55:25.707Z,1.70
2022-09-18T07:57:27.265Z,1.50
2022-09-18T07:59:30.182Z,1.60
2022-09-18T08:01:33.583Z,1.10
2022-09-18T08:03:41.025Z,1.40
2022-09-18T08:05:43.015Z,1.60
2022-09-18T08:07:44.580Z,1.93
2022-09-18T08:09:46.226Z,1.43
2022-09-18T08:11:51.043Z,1.63
2022-09-18T08:13:52.809Z,1.50
2022-09-18T08:15:55.722Z,1.57
2022-09-18T08:17:57.356Z,1.20
2022-09-18T08:19:59.102Z,1.27
2022-09-18T08:22:01.045Z,1.38
2022-09-18T08:24:03.073Z,1.13
2022-09-18T08:26:05.518Z,1.37
2022-09-18T08:28:07.034Z,1.20
2022-09-18T08:30:10.893Z,1.60
2022-09-18T08:32:13.804Z,1.00
2022-09-18T08:34:15.319Z,1.50
2022-09-18T08:36:16.836Z,1.50
2022-09-18T08:38:18.579Z,1.13
2022-09-18T08:40:22.628Z,1.23
2022-09-18T08:42:30.783Z,1.33
2022-09-18T08:44:42.601Z,1.60
2022-09-18T08:46:49.039Z,1.87
2022-09-18T08:48:59.313Z,1.50
2022-09-18T08:51:06.858Z,1.80
2022-09-18T08:53:16.573Z,2.00
2022-09-18T08:55:24.334Z,1.90
2022-09-18T08:57:30.684Z,1.50
2022-09-18T08:59:38.388Z,1.70
2022-09-18T09:01:46.811Z,2.10
2022-09-18T09:03:57.383Z,1.53
2022-09-18T09:06:05.219Z,1.80
2022-09-18T09:08:32.914Z,2.17
2022-09-18T09:10:47.335Z,2.10
2022-09-18T09:12:56.978Z,1.50
2022-09-18T09:15:21.803Z,1.93
2022-09-18T09:17:38.003Z,1.90
2022-09-18T09:19:47.113Z,2.10
2022-09-18T09:21:57.826Z,2.40
2022-09-18T09:24:13.250Z,1.93
2022-09-18T09:26:18.185Z,2.00
2022-09-18T09:28:24.867Z,2.37
2022-09-18T09:30:33.286Z,1.90
2022-09-18T09:32:39.866Z,2.40
2022-09-18T09:34:48.183Z,2.00
2022-09-18T09:36:52.958Z,1.90
2022-09-18T09:38:59.991Z,1.67
2022-09-18T09:41:12.458Z,1.70
2022-09-18T09:43:20.148Z,1.90
2022-09-18T09:45:27.649Z,1.83
2022-09-18T09:47:38.355Z,1.27
2022-09-18T09:49:50.679Z,1.50
2022-09-18T09:52:06.925Z,1.90
2022-09-18T09:54:12.309Z,1.70
2022-09-18T09:56:20.522Z,2.20
2022-09-18T09:58:35.743Z,1.77
2022-09-18T10:00:43.504Z,1.60
2022-09-18T10:03:01.134Z,1.40
2022-09-18T10:05:16.193Z,1.30
2022-09-18T10:07:23.633Z,1.50
2022-09-18T10:09:39.585Z,1.47
2022-09-18T10:11:43.313Z,1.47
2022-09-18T10:13:49.763Z,1.90
2022-09-18T10:15:55.909Z,1.67
2022-09-18T10:18:01.668Z,1.53
2022-09-18T10:20:06.167Z,1.20
2022-09-18T10:22:11.696Z,1.60
2022-09-18T10:24:20.617Z,1.87
2022-09-18T10:26:26.323Z,1.50
2022-09-18T10:28:28.345Z,1.50
2022-09-18T10:30:29.909Z,1.60
2022-09-18T10:32:33.645Z,1.50
2022-09-18T10:34:40.084Z,1.67
2022-09-18T10:36:44.510Z,1.40
2022-09-18T10:38:46.420Z,1.77
2022-09-18T10:40:48.067Z,1.73
2022-09-18T10:42:54.232Z,1.30
2022-09-18T10:45:01.436Z,1.37
2022-09-18T10:47:07.639Z,1.30
2022-09-18T10:49:19.171Z,1.47
2022-09-18T10:51:22.798Z,1.80
2022-09-18T10:53:30.463Z,1.50
2022-09-18T10:55:32.062Z,1.90
2022-09-18T10:57:35.318Z,1.27
2022-09-18T10:59:37.046Z,1.60
2022-09-18T11:01:41.483Z,1.53
2022-09-18T11:03:59.468Z,1.60
2022-09-18T11:06:03.998Z,1.43
2022-09-18T11:08:13.283Z,2.00
2022-09-18T11:10:19.061Z,1.27
2022-09-18T11:12:22.678Z,1.50
2022-09-18T11:14:26.956Z,1.53
2022-09-18T11:16:31.169Z,1.80
2022-09-18T11:18:33.358Z,1.47
2022-09-18T11:20:41.870Z,2.03
2022-09-18T11:22:44.073Z,1.50
2022-09-18T11:24:47.520Z,1.43
2022-09-18T11:26:52.206Z,1.37
2022-09-18T11:29:05.274Z,1.30
2022-09-18T11:31:13.663Z,1.47
2022-09-18T11:33:24.684Z,1.77
2022-09-18T11:35:28.643Z,1.67
2022-09-18T11:37:34.800Z,1.83
2022-09-18T11:39:41.344Z,1.93
2022-09-18T11:41:43.867Z,2.23
2022-09-18T11:43:59.896Z,1.80
2022-09-18T11:46:13.314Z,2.10
2022-09-18T11:48:23.930Z,1.87
2022-09-18T11:50:29.375Z,1.70
2022-09-18T11:52:36.811Z,1.63
2022-09-18T11:54:45.678Z,1.60
2022-09-18T11:56:52.054Z,1.93
2022-09-18T11:59:01.326Z,2.10
2022-09-18T12:01:14.357Z,1.67
2022-09-18T12:03:22.224Z,1.80
2022-09-18T12:05:28.338Z,1.67
2022-09-18T12:07:40.356Z,1.60
2022-09-18T12:09:47.429Z,1.40
2022-09-18T12:11:56.415Z,2.03
2022-09-18T12:14:11.564Z,1.43
2022-09-18T12:16:19.660Z,2.10
2022-09-18T12:18:25.869Z,2.07
2022-09-18T12:20:31.334Z,2.10
2022-09-18T12:22:41.461Z,1.70
2022-09-18T12:24:43.037Z,2.40
2022-09-18T12:26:53.001Z,1.93
2022-09-18T12:29:11.528Z,2.07
2022-09-18T12:31:20.951Z,2.03
2022-09-18T12:33:34.429Z,1.90
2022-09-18T12:35:51.228Z,1.50
2022-09-18T12:38:03.678Z,2.50
2022-09-18T12:40:24.250Z,1.60
2022-09-18T12:42:36.482Z,1.80
2022-09-18T12:44:55.196Z,1.73
2022-09-18T12:47:12.481Z,1.60
2022-09-18T12:49:34.158Z,2.00
2022-09-18T12:51:44.508Z,1.77
2022-09-18T12:53:55.340Z,1.73
2022-09-18T12:56:11.122Z,1.70
2022-09-18T12:58:30.780Z,2.20
2022-09-18T13:00:36.783Z,2.20
2022-09-18T13:02:48.123Z,1.87
2022-09-18T13:05:00.379Z,2.10
2022-09-18T13:07:06.953Z,1.60
2022-09-18T13:09:15.593Z,1.93
2022-09-18T13:11:30.034Z,1.87
2022-09-18T13:13:38.216Z,2.00
2022-09-18T13:15:46.042Z,2.00
2022-09-18T13:17:52.337Z,1.40
2022-09-18T13:19:59.483Z,1.47
2022-09-18T13:22:05.681Z,2.03
2022-09-18T13:24:13.417Z,2.30
2022-09-18T13:26:15.685Z,2.00
2022-09-18T13:28:20.276Z,1.97
2022-09-18T13:30:27.518Z,2.07
2022-09-18T13:32:41.758Z,1.90
2022-09-18T13:34:49.654Z,2.73
2022-09-18T13:36:51.275Z,2.37
2022-09-18T13:38:53.614Z,1.90
2022-09-18T13:41:01.313Z,2.47
2022-09-18T13:43:30.369Z,1.87
2022-09-18T13:45:37.788Z,2.03
2022-09-18T13:48:02.483Z,2.00
2022-09-18T13:50:05.295Z,1.87
2022-09-18T13:52:28.526Z,2.20
2022-09-18T13:54:30.201Z,1.87
2022-09-18T13:57:17.414Z,2.33
2022-09-18T13:59:22.318Z,1.80
2022-09-18T14:02:02.975Z,1.90
2022-09-18T14:04:58.412Z,2.07
2022-09-18T14:06:59.927Z,1.67
2022-09-18T14:09:02.313Z,1.70
2022-09-18T14:11:21.544Z,2.20
2022-09-18T14:13:38.306Z,1.90
2022-09-18T14:15:50.496Z,2.07
2022-09-18T14:18:05.861Z,1.80
2022-09-18T14:20:19.699Z,1.63
2022-09-18T14:22:23.649Z,2.13
2022-09-18T14:24:55.342Z,1.70
2022-09-18T14:27:00.629Z,1.87
2022-09-18T14:29:09.907Z,1.63
2022-09-18T14:31:17.965Z,1.40
2022-09-18T14:33:20.787Z,2.20
2022-09-18T14:35:31.508Z,1.70
2022-09-18T14:37:36.058Z,1.43
2022-09-18T14:39:38.218Z,1.70
2022-09-18T14:41:39.867Z,1.80
2022-09-18T14:43:48.250Z,1.80
2022-09-18T14:45:52.076Z,1.63
2022-09-18T14:47:57.382Z,1.50
2022-09-18T14:49:58.958Z,1.60
2022-09-18T14:52:05.434Z,2.00
2022-09-18T14:54:20.398Z,2.10
2022-09-18T14:56:26.716Z,1.87
2022-09-18T14:58:33.123Z,1.80
2022-09-18T15:00:37.367Z,1.40
2022-09-18T15:02:40.563Z,1.60
2022-09-18T15:04:42.483Z,1.53
2022-09-18T15:06:46.539Z,1.70
2022-09-18T15:08:50.916Z,1.40
2022-09-18T15:10:56.431Z,1.70
2022-09-18T15:12:59.552Z,1.50
2022-09-18T15:15:24.997Z,1.50
2022-09-18T15:17:28.256Z,1.60
2022-09-18T15:19:32.610Z,1.40
2022-09-18T15:21:45.964Z,1.33
2022-09-18T15:23:47.769Z,1.77
2022-09-18T15:25:52.368Z,7.70
2022-09-18T15:27:56.689Z,2.90
2022-09-18T15:30:01.824Z,2.93
2022-09-18T15:32:05.092Z,2.27
2022-09-18T15:34:13.145Z,1.40
2022-09-18T15:36:24.541Z,2.30
2022-09-18T15:38:33.776Z,2.10
2022-09-18T15:40:38.210Z,1.60
2022-09-18T15:42:50.821Z,2.00
2022-09-18T15:45:15.447Z,2.07
2022-09-18T15:47:30.112Z,2.20
2022-09-18T15:49:34.605Z,1.60
2022-09-18T15:51:37.688Z,1.67
2022-09-18T15:53:39.450Z,2.10
2022-09-18T15:55:53.991Z,2.50
2022-09-18T15:57:58.882Z,2.50
2022-09-18T16:00:00.598Z,3.10
2022-09-18T16:02:18.173Z,1.67
2022-09-18T16:04:23.059Z,1.93
2022-09-18T16:06:27.241Z,1.67
2022-09-18T16:08:32.385Z,1.90
2022-09-18T16:10:48.394Z,2.00
2022-09-18T16:12:50.423Z,1.60
2022-09-18T16:15:13.312Z,1.37
2022-09-18T16:17:37.047Z,2.27
2022-09-18T16:19:43.369Z,1.90
2022-09-18T16:21:44.960Z,1.43
2022-09-18T16:23:49.964Z,1.40
2022-09-18T16:26:03.315Z,1.40
2022-09-18T16:28:14.726Z,1.77
2022-09-18T16:30:16.354Z,1.90
2022-09-18T16:32:17.890Z,2.10
2022-09-18T16:34:21.835Z,1.80
2022-09-18T16:36:29.880Z,1.70
2022-09-18T16:38:31.811Z,1.43
2022-09-18T16:40:35.314Z,1.70
2022-09-18T16:42:37.241Z,1.57
2022-09-18T16:44:38.760Z,1.90
2022-09-18T16:46:43.033Z,1.40
2022-09-18T16:48:44.674Z,1.63
2022-09-18T16:50:46.220Z,1.90
2022-09-18T16:52:48.925Z,1.87
2022-09-18T16:54:50.486Z,1.47
2022-09-18T16:57:00.957Z,2.30
2022-09-18T16:59:05.297Z,1.77
2022-09-18T17:01:07.462Z,1.70
2022-09-18T17:03:09.287Z,1.83
2022-09-18T17:05:10.890Z,1.63
2022-09-18T17:07:15.148Z,1.40
2022-09-18T17:09:16.715Z,1.30
2022-09-18T17:11:18.681Z,1.47
2022-09-18T17:13:22.222Z,1.60
2022-09-18T17:15:24.171Z,1.80
2022-09-18T17:17:25.954Z,1.47
2022-09-18T17:19:29.766Z,1.70
2022-09-18T17:21:31.512Z,1.90
2022-09-18T17:23:33.611Z,1.90
2022-09-18T17:25:35.298Z,1.60
2022-09-18T17:27:41.732Z,1.67
2022-09-18T17:29:46.517Z,1.70
2022-09-18T17:31:48.401Z,1.40
2022-09-18T17:33:53.741Z,2.10
2022-09-18T17:35:55.566Z,2.40
2022-09-18T17:37:58.061Z,2.00
2022-09-18T17:40:01.577Z,1.63
2022-09-18T17:42:03.445Z,1.70
2022-09-18T17:44:05.786Z,2.40
2022-09-18T17:46:11.259Z,1.80
2022-09-18T17:48:12.955Z,1.90
2022-09-18T17:50:14.743Z,1.60
2022-09-18T17:52:16.791Z,1.80
2022-09-18T17:54:18.559Z,1.90
2022-09-18T17:56:20.525Z,1.70
2022-09-18T17:58:22.198Z,2.20
2022-09-18T18:00:24.040Z,1.70
2022-09-18T18:02:27.187Z,1.70
2022-09-18T18:04:29.701Z,1.90
2022-09-18T18:06:31.498Z,1.90
2022-09-18T18:08:33.889Z,2.87
2022-09-18T18:10:35.939Z,1.83
2022-09-18T18:12:37.503Z,2.20
2022-09-18T18:14:39.142Z,2.57
2022-09-18T18:16:41.052Z,2.10
2022-09-18T18:18:44.347Z,2.30
2022-09-18T18:20:49.543Z,2.30
2022-09-18T18:22:51.593Z,2.40
2022-09-18T18:24:53.322Z,2.90
2022-09-18T18:26:55.818Z,2.53
2022-09-18T18:28:57.713Z,2.27
2022-09-18T18:31:00.660Z,2.50
2022-09-18T18:33:02.656Z,2.30
2022-09-18T18:35:06.507Z,3.33
2022-09-18T18:37:08.371Z,2.73
2022-09-18T18:39:10.875Z,3.17
2022-09-18T18:41:14.065Z,3.87
2022-09-18T18:43:18.048Z,2.53
2022-09-18T18:45:21.146Z,3.00
2022-09-18T18:47:22.804Z,2.90
2022-09-18T18:49:26.124Z,3.10
2022-09-18T18:51:32.537Z,2.80
2022-09-18T18:53:42.339Z,3.17
2022-09-18T18:55:48.251Z,3.40
2022-09-18T18:57:50.068Z,4.37
2022-09-18T18:59:52.055Z,3.23
2022-09-18T19:01:54.887Z,2.53
2022-09-18T19:03:58.636Z,2.77
2022-09-18T19:06:00.284Z,2.60
2022-09-18T19:08:03.795Z,2.70
2022-09-18T19:10:06.239Z,2.60
2022-09-18T19:12:09.666Z,2.57
2022-09-18T19:14:12.935Z,2.53
2022-09-18T19:16:14.879Z,2.40
2022-09-18T19:18:16.690Z,2.70
2022-09-18T19:20:19.346Z,2.80
2022-09-18T19:22:21.162Z,1.80
2022-09-18T19:24:24.607Z,2.00
2022-09-18T19:26:28.509Z,2.17
2022-09-18T19:28:30.866Z,2.00
2022-09-18T19:30:35.411Z,2.60
2022-09-18T19:32:36.999Z,1.97
2022-09-18T19:34:38.788Z,1.93
2022-09-18T19:36:40.812Z,1.73
2022-09-18T19:38:42.612Z,1.90
2022-09-18T19:40:47.829Z,2.20
2022-09-18T19:42:56.357Z,1.90
2022-09-18T19:45:03.119Z,2.17
2022-09-18T19:47:07.491Z,2.63
2022-09-18T19:49:16.158Z,3.57
2022-09-18T19:51:17.995Z,2.90
2022-09-18T19:53:20.115Z,2.53
2022-09-18T19:55:22.126Z,2.70
2022-09-18T19:57:26.572Z,2.20
2022-09-18T19:59:28.717Z,2.97
2022-09-18T20:01:30.661Z,2.20
2022-09-18T20:03:32.423Z,1.93
2022-09-18T20:05:37.928Z,2.47
2022-09-18T20:07:40.660Z,2.07
2022-09-18T20:09:42.412Z,2.43
2022-09-18T20:11:48.134Z,2.33
2022-09-18T20:13:53.386Z,2.80
2022-09-18T20:16:02.752Z,2.60
2022-09-18T20:18:06.833Z,2.27
2022-09-18T20:20:13.287Z,3.10
2022-09-18T20:22:18.940Z,3.60
2022-09-18T20:24:20.930Z,3.30
2022-09-18T20:26:23.019Z,2.97
2022-09-18T20:28:25.073Z,2.07
2022-09-18T20:30:28.213Z,2.70
2022-09-18T20:32:29.915Z,2.47
2022-09-18T20:34:32.021Z,2.50
2022-09-18T20:36:33.918Z,2.37
2022-09-18T20:38:37.261Z,2.80
2022-09-18T20:40:39.625Z,2.03
2022-09-18T20:42:41.290Z,2.07
2022-09-18T20:44:42.861Z,2.03
2022-09-18T20:46:45.884Z,2.10
2022-09-18T20:48:48.964Z,2.07
2022-09-18T20:50:50.805Z,2.10
2022-09-18T20:52:52.396Z,1.90
2022-09-18T20:54:54.020Z,1.17
2022-09-18T20:56:56.089Z,1.13
2022-09-18T20:58:58.236Z,0.90
2022-09-18T21:01:05.677Z,0.90
2022-09-18T21:03:08.848Z,0.97
2022-09-18T21:05:11.674Z,1.00
2022-09-18T21:07:13.285Z,0.87
2022-09-18T21:09:15.159Z,0.80
2022-09-18T21:11:18.731Z,0.73
2022-09-18T21:13:20.381Z,0.90
2022-09-18T21:15:22.033Z,1.10
2022-09-18T21:17:23.750Z,1.00
2022-09-18T21:19:29.284Z,0.70
2022-09-18T21:21:33.070Z,0.97
2022-09-18T21:23:35.249Z,1.10
2022-09-18T21:25:36.803Z,0.80
2022-09-18T21:27:38.363Z,0.97
2022-09-18T21:29:39.888Z,0.70
2022-09-18T21:31:42.643Z,0.90
2022-09-18T21:33:44.491Z,0.90
2022-09-18T21:35:54.281Z,0.90
2022-09-18T21:37:55.836Z,0.80
2022-09-18T21:39:57.398Z,1.30
2022-09-18T21:42:00.329Z,0.80
2022-09-18T21:44:02.104Z,0.90
2022-09-18T21:46:05.983Z,0.80
2022-09-18T21:48:07.577Z,0.80
2022-09-18T21:50:09.404Z,0.77
2022-09-18T21:52:12.339Z,1.20
2022-09-18T21:54:16.162Z,0.98
2022-09-18T21:56:19.239Z,0.93
2022-09-18T21:58:20.716Z,0.70
2022-09-18T22:00:22.251Z,1.10
2022-09-18T22:02:24.053Z,0.80
2022-09-18T22:04:27.674Z,0.90
2022-09-18T22:06:31.422Z,0.80
2022-09-18T22:08:34.371Z,0.90
2022-09-18T22:10:36.012Z,0.77
2022-09-18T22:12:40.082Z,0.87
2022-09-18T22:14:41.712Z,0.73
2022-09-18T22:16:43.627Z,0.93
2022-09-18T22:18:45.494Z,0.90
2022-09-18T22:20:47.079Z,0.93
2022-09-18T22:22:48.602Z,1.17
2022-09-18T22:24:51.510Z,0.70
2022-09-18T22:26:55.593Z,0.70
2022-09-18T22:28:57.125Z,1.00
2022-09-18T22:30:58.829Z,0.80
2022-09-18T22:33:00.433Z,0.83
2022-09-18T22:35:02.043Z,0.80
2022-09-18T22:37:04.712Z,1.10
2022-09-18T22:39:06.734Z,1.00
2022-09-18T22:41:10.484Z,0.70
2022-09-18T22:43:12.109Z,0.70
2022-09-18T22:45:13.802Z,0.90
2022-09-18T22:47:15.332Z,0.70
2022-09-18T22:49:18.282Z,0.90
2022-09-18T22:51:22.242Z,0.80
2022-09-18T22:53:23.741Z,0.80
2022-09-18T22:55:25.278Z,0.95
2022-09-18T22:57:28.242Z,0.77
2022-09-18T22:59:29.741Z,0.80
2022-09-18T23:01:34.015Z,0.83
2022-09-18T23:03:35.781Z,0.70
2022-09-18T23:05:37.563Z,0.90
2022-09-18T23:07:39.160Z,1.08
2022-09-18T23:09:40.689Z,0.83
2022-09-18T23:11:43.635Z,0.90
2022-09-18T23:13:49.699Z,0.90
2022-09-18T23:15:51.288Z,0.70
2022-09-18T23:17:52.798Z,1.00
2022-09-18T23:19:54.321Z,0.87
2022-09-18T23:21:56.144Z,0.77
2022-09-18T23:23:59.446Z,1.00
2022-09-18T23:26:06.010Z,0.90
2022-09-18T23:28:07.495Z,0.90
2022-09-18T23:30:11.601Z,0.73
2022-09-18T23:32:13.232Z,0.90
2022-09-18T23:34:16.633Z,1.00
2022-09-18T23:36:20.762Z,0.87
2022-09-18T23:38:22.287Z,1.40
2022-09-18T23:40:23.934Z,1.05
2022-09-18T23:42:25.465Z,0.90
2022-09-18T23:44:28.147Z,0.87
2022-09-18T23:46:31.825Z,1.13
2022-09-18T23:48:33.397Z,0.70
2022-09-18T23:50:34.865Z,0.90
2022-09-18T23:52:36.374Z,0.90
2022-09-18T23:54:37.871Z,1.50
2022-09-18T23:56:39.566Z,1.00
2022-09-18T23:58:41.128Z,1.20
